sensor_id;sensor_type;location;lat;lon;timestamp;P1;durP1;ratioP1;P2;durP2;ratioP2
16822;SDS011;8528;49.976;11.858;2023-01-28T00:01:17;14.07;;;7.60;;
16822;SDS011;8528;49.976;11.858;2023-01-28T00:03:44;13.37;;;8.07;;
16822;SDS011;8528;49.976;11.858;2023-01-28T00:06:16;10.03;;;6.23;;
16822;SDS011;8528;49.976;11.858;2023-01-28T00:08:44;13.33;;;8.00;;
16822;SDS011;8528;49.976;11.858;2023-01-28T00:11:11;13.80;;;7.57;;
16822;SDS011;8528;49.976;11.858;2023-01-28T00:13:39;12.03;;;6.53;;
16822;SDS011;8528;49.976;11.858;2023-01-28T00:16:07;11.27;;;6.70;;
16822;SDS011;8528;49.976;11.858;2023-01-28T00:18:34;11.20;;;6.63;;
16822;SDS011;8528;49.976;11.858;2023-01-28T00:23:55;11.57;;;6.23;;
16822;SDS011;8528;49.976;11.858;2023-01-28T00:26:23;11.30;;;7.03;;
16822;SDS011;8528;49.976;11.858;2023-01-28T00:28:50;10.50;;;6.70;;
16822;SDS011;8528;49.976;11.858;2023-01-28T00:31:18;11.13;;;6.50;;
16822;SDS011;8528;49.976;11.858;2023-01-28T00:33:47;12.77;;;7.30;;
16822;SDS011;8528;49.976;11.858;2023-01-28T00:36:16;12.87;;;6.93;;
16822;SDS011;8528;49.976;11.858;2023-01-28T00:38:50;12.53;;;6.63;;
16822;SDS011;8528;49.976;11.858;2023-01-28T00:41:22;12.03;;;6.20;;
16822;SDS011;8528;49.976;11.858;2023-01-28T00:43:50;12.07;;;6.70;;
16822;SDS011;8528;49.976;11.858;2023-01-28T00:46:18;12.77;;;6.90;;
16822;SDS011;8528;49.976;11.858;2023-01-28T00:48:46;11.93;;;7.07;;
16822;SDS011;8528;49.976;11.858;2023-01-28T00:51:14;12.47;;;7.13;;
16822;SDS011;8528;49.976;11.858;2023-01-28T00:53:42;11.07;;;6.60;;
16822;SDS011;8528;49.976;11.858;2023-01-28T00:56:10;11.50;;;6.97;;
16822;SDS011;8528;49.976;11.858;2023-01-28T00:58:38;12.00;;;7.10;;
16822;SDS011;8528;49.976;11.858;2023-01-28T01:01:07;15.20;;;7.73;;
16822;SDS011;8528;49.976;11.858;2023-01-28T01:03:45;14.27;;;7.40;;
16822;SDS011;8528;49.976;11.858;2023-01-28T01:06:13;13.00;;;7.20;;
16822;SDS011;8528;49.976;11.858;2023-01-28T01:08:41;13.93;;;7.83;;
16822;SDS011;8528;49.976;11.858;2023-01-28T01:11:16;12.00;;;7.43;;
16822;SDS011;8528;49.976;11.858;2023-01-28T01:13:43;15.63;;;8.37;;
16822;SDS011;8528;49.976;11.858;2023-01-28T01:16:11;13.90;;;8.40;;
16822;SDS011;8528;49.976;11.858;2023-01-28T01:18:41;14.47;;;8.30;;
16822;SDS011;8528;49.976;11.858;2023-01-28T01:21:09;14.90;;;7.57;;
16822;SDS011;8528;49.976;11.858;2023-01-28T01:23:37;11.73;;;7.73;;
16822;SDS011;8528;49.976;11.858;2023-01-28T01:26:05;13.97;;;7.47;;
16822;SDS011;8528;49.976;11.858;2023-01-28T01:28:32;14.17;;;7.60;;
16822;SDS011;8528;49.976;11.858;2023-01-28T01:31:00;12.63;;;7.03;;
16822;SDS011;8528;49.976;11.858;2023-01-28T01:33:28;14.07;;;7.23;;
16822;SDS011;8528;49.976;11.858;2023-01-28T01:35:56;12.73;;;7.50;;
16822;SDS011;8528;49.976;11.858;2023-01-28T01:38:23;12.27;;;7.90;;
16822;SDS011;8528;49.976;11.858;2023-01-28T01:40:50;16.33;;;8.10;;
16822;SDS011;8528;49.976;11.858;2023-01-28T01:43:18;12.90;;;7.83;;
16822;SDS011;8528;49.976;11.858;2023-01-28T01:45:47;12.83;;;7.13;;
16822;SDS011;8528;49.976;11.858;2023-01-28T01:48:27;14.33;;;7.33;;
16822;SDS011;8528;49.976;11.858;2023-01-28T01:50:58;15.37;;;7.77;;
16822;SDS011;8528;49.976;11.858;2023-01-28T01:53:30;14.97;;;7.90;;
16822;SDS011;8528;49.976;11.858;2023-01-28T01:55:59;15.47;;;9.10;;
16822;SDS011;8528;49.976;11.858;2023-01-28T01:58:30;12.07;;;7.20;;
16822;SDS011;8528;49.976;11.858;2023-01-28T02:01:01;13.57;;;8.03;;
16822;SDS011;8528;49.976;11.858;2023-01-28T02:03:30;13.27;;;7.23;;
16822;SDS011;8528;49.976;11.858;2023-01-28T02:06:06;12.43;;;7.40;;
16822;SDS011;8528;49.976;11.858;2023-01-28T02:08:34;15.40;;;8.13;;
16822;SDS011;8528;49.976;11.858;2023-01-28T02:11:01;13.30;;;7.43;;
16822;SDS011;8528;49.976;11.858;2023-01-28T02:13:33;15.57;;;7.43;;
16822;SDS011;8528;49.976;11.858;2023-01-28T02:16:04;14.57;;;7.60;;
16822;SDS011;8528;49.976;11.858;2023-01-28T02:18:32;13.53;;;7.10;;
16822;SDS011;8528;49.976;11.858;2023-01-28T02:24:17;12.97;;;7.07;;
16822;SDS011;8528;49.976;11.858;2023-01-28T02:30:18;12.13;;;7.00;;
16822;SDS011;8528;49.976;11.858;2023-01-28T02:32:52;12.07;;;6.77;;
16822;SDS011;8528;49.976;11.858;2023-01-28T02:35:40;14.07;;;7.20;;
16822;SDS011;8528;49.976;11.858;2023-01-28T02:38:17;15.67;;;7.03;;
16822;SDS011;8528;49.976;11.858;2023-01-28T02:40:51;11.80;;;6.87;;
16822;SDS011;8528;49.976;11.858;2023-01-28T02:46:01;11.00;;;6.83;;
16822;SDS011;8528;49.976;11.858;2023-01-28T02:49:09;12.63;;;6.60;;
16822;SDS011;8528;49.976;11.858;2023-01-28T02:55:13;11.90;;;6.43;;
16822;SDS011;8528;49.976;11.858;2023-01-28T02:57:54;12.50;;;6.63;;
16822;SDS011;8528;49.976;11.858;2023-01-28T03:00:33;14.10;;;7.00;;
16822;SDS011;8528;49.976;11.858;2023-01-28T03:03:15;11.77;;;6.63;;
16822;SDS011;8528;49.976;11.858;2023-01-28T03:05:52;11.67;;;6.57;;
16822;SDS011;8528;49.976;11.858;2023-01-28T03:08:36;10.97;;;5.70;;
16822;SDS011;8528;49.976;11.858;2023-01-28T03:11:28;10.03;;;6.53;;
16822;SDS011;8528;49.976;11.858;2023-01-28T03:14:17;10.23;;;6.10;;
16822;SDS011;8528;49.976;11.858;2023-01-28T03:17:07;13.77;;;7.00;;
16822;SDS011;8528;49.976;11.858;2023-01-28T03:20:00;10.37;;;6.03;;
16822;SDS011;8528;49.976;11.858;2023-01-28T03:22:46;10.27;;;5.73;;
16822;SDS011;8528;49.976;11.858;2023-01-28T03:25:35;10.77;;;5.90;;
16822;SDS011;8528;49.976;11.858;2023-01-28T03:28:24;10.67;;;6.00;;
16822;SDS011;8528;49.976;11.858;2023-01-28T03:31:12;10.77;;;5.40;;
16822;SDS011;8528;49.976;11.858;2023-01-28T03:34:00;10.37;;;5.43;;
16822;SDS011;8528;49.976;11.858;2023-01-28T03:36:48;9.70;;;5.73;;
16822;SDS011;8528;49.976;11.858;2023-01-28T03:39:25;9.50;;;6.23;;
16822;SDS011;8528;49.976;11.858;2023-01-28T03:41:58;9.83;;;6.07;;
16822;SDS011;8528;49.976;11.858;2023-01-28T03:44:36;9.73;;;5.93;;
16822;SDS011;8528;49.976;11.858;2023-01-28T03:47:22;9.03;;;5.53;;
16822;SDS011;8528;49.976;11.858;2023-01-28T03:49:51;11.33;;;5.53;;
16822;SDS011;8528;49.976;11.858;2023-01-28T03:52:21;10.80;;;6.00;;
16822;SDS011;8528;49.976;11.858;2023-01-28T03:54:49;11.70;;;5.73;;
16822;SDS011;8528;49.976;11.858;2023-01-28T03:57:19;8.83;;;5.83;;
16822;SDS011;8528;49.976;11.858;2023-01-28T03:59:47;10.80;;;5.27;;
16822;SDS011;8528;49.976;11.858;2023-01-28T04:02:18;8.00;;;5.50;;
16822;SDS011;8528;49.976;11.858;2023-01-28T04:04:46;9.33;;;6.13;;
16822;SDS011;8528;49.976;11.858;2023-01-28T04:07:15;8.90;;;5.60;;
16822;SDS011;8528;49.976;11.858;2023-01-28T04:09:42;10.30;;;6.23;;
16822;SDS011;8528;49.976;11.858;2023-01-28T04:12:09;10.77;;;6.20;;
16822;SDS011;8528;49.976;11.858;2023-01-28T04:14:36;10.93;;;5.97;;
16822;SDS011;8528;49.976;11.858;2023-01-28T04:17:05;12.43;;;6.57;;
16822;SDS011;8528;49.976;11.858;2023-01-28T04:19:36;9.40;;;5.37;;
16822;SDS011;8528;49.976;11.858;2023-01-28T04:22:04;11.60;;;6.40;;
16822;SDS011;8528;49.976;11.858;2023-01-28T04:24:32;11.70;;;6.17;;
16822;SDS011;8528;49.976;11.858;2023-01-28T04:26:59;9.23;;;5.67;;
16822;SDS011;8528;49.976;11.858;2023-01-28T04:29:26;9.47;;;5.60;;
16822;SDS011;8528;49.976;11.858;2023-01-28T04:31:53;9.37;;;5.03;;
16822;SDS011;8528;49.976;11.858;2023-01-28T04:34:19;12.20;;;6.33;;
16822;SDS011;8528;49.976;11.858;2023-01-28T04:36:46;12.70;;;6.57;;
16822;SDS011;8528;49.976;11.858;2023-01-28T04:39:13;9.93;;;5.70;;
16822;SDS011;8528;49.976;11.858;2023-01-28T04:41:40;10.60;;;5.90;;
16822;SDS011;8528;49.976;11.858;2023-01-28T04:44:06;9.13;;;6.20;;
16822;SDS011;8528;49.976;11.858;2023-01-28T04:46:33;10.50;;;5.63;;
16822;SDS011;8528;49.976;11.858;2023-01-28T04:49:00;9.53;;;5.17;;
16822;SDS011;8528;49.976;11.858;2023-01-28T04:51:28;10.60;;;5.57;;
16822;SDS011;8528;49.976;11.858;2023-01-28T04:53:55;9.57;;;5.07;;
16822;SDS011;8528;49.976;11.858;2023-01-28T04:56:22;8.83;;;5.27;;
16822;SDS011;8528;49.976;11.858;2023-01-28T04:58:49;7.73;;;5.30;;
16822;SDS011;8528;49.976;11.858;2023-01-28T05:01:15;7.83;;;5.07;;
16822;SDS011;8528;49.976;11.858;2023-01-28T05:03:42;9.77;;;5.30;;
16822;SDS011;8528;49.976;11.858;2023-01-28T05:06:09;8.33;;;5.27;;
16822;SDS011;8528;49.976;11.858;2023-01-28T05:08:36;7.37;;;4.77;;
16822;SDS011;8528;49.976;11.858;2023-01-28T05:11:03;5.57;;;3.97;;
16822;SDS011;8528;49.976;11.858;2023-01-28T05:13:29;6.13;;;4.27;;
16822;SDS011;8528;49.976;11.858;2023-01-28T05:15:56;5.30;;;3.60;;
16822;SDS011;8528;49.976;11.858;2023-01-28T05:18:23;5.77;;;4.03;;
16822;SDS011;8528;49.976;11.858;2023-01-28T05:20:50;4.33;;;3.47;;
16822;SDS011;8528;49.976;11.858;2023-01-28T05:23:17;5.33;;;3.70;;
16822;SDS011;8528;49.976;11.858;2023-01-28T05:25:43;5.40;;;3.87;;
16822;SDS011;8528;49.976;11.858;2023-01-28T05:28:10;3.83;;;3.30;;
16822;SDS011;8528;49.976;11.858;2023-01-28T05:30:38;5.47;;;4.00;;
16822;SDS011;8528;49.976;11.858;2023-01-28T05:33:06;3.80;;;2.93;;
16822;SDS011;8528;49.976;11.858;2023-01-28T05:35:33;5.00;;;3.20;;
16822;SDS011;8528;49.976;11.858;2023-01-28T05:38:01;4.23;;;3.27;;
16822;SDS011;8528;49.976;11.858;2023-01-28T05:40:28;5.83;;;3.50;;
16822;SDS011;8528;49.976;11.858;2023-01-28T05:42:55;5.13;;;3.80;;
16822;SDS011;8528;49.976;11.858;2023-01-28T05:45:22;5.30;;;3.70;;
16822;SDS011;8528;49.976;11.858;2023-01-28T05:47:49;4.67;;;3.30;;
16822;SDS011;8528;49.976;11.858;2023-01-28T05:50:16;3.17;;;2.87;;
16822;SDS011;8528;49.976;11.858;2023-01-28T05:52:43;4.00;;;3.10;;
16822;SDS011;8528;49.976;11.858;2023-01-28T05:55:10;4.63;;;3.23;;
16822;SDS011;8528;49.976;11.858;2023-01-28T05:57:36;4.27;;;3.40;;
16822;SDS011;8528;49.976;11.858;2023-01-28T06:00:03;4.47;;;3.50;;
16822;SDS011;8528;49.976;11.858;2023-01-28T06:02:31;4.33;;;3.07;;
16822;SDS011;8528;49.976;11.858;2023-01-28T06:04:58;5.20;;;3.60;;
16822;SDS011;8528;49.976;11.858;2023-01-28T06:07:25;3.77;;;3.03;;
16822;SDS011;8528;49.976;11.858;2023-01-28T06:09:52;4.87;;;3.53;;
16822;SDS011;8528;49.976;11.858;2023-01-28T06:12:23;3.70;;;3.00;;
16822;SDS011;8528;49.976;11.858;2023-01-28T06:14:50;4.20;;;2.90;;
16822;SDS011;8528;49.976;11.858;2023-01-28T06:17:16;4.07;;;3.67;;
16822;SDS011;8528;49.976;11.858;2023-01-28T06:19:43;3.97;;;2.90;;
16822;SDS011;8528;49.976;11.858;2023-01-28T06:22:10;5.93;;;3.50;;
16822;SDS011;8528;49.976;11.858;2023-01-28T06:24:37;3.50;;;2.83;;
16822;SDS011;8528;49.976;11.858;2023-01-28T06:27:03;4.13;;;3.17;;
16822;SDS011;8528;49.976;11.858;2023-01-28T06:29:30;3.53;;;2.67;;
16822;SDS011;8528;49.976;11.858;2023-01-28T06:31:57;6.10;;;5.23;;
16822;SDS011;8528;49.976;11.858;2023-01-28T06:34:24;4.03;;;3.07;;
16822;SDS011;8528;49.976;11.858;2023-01-28T06:36:51;3.37;;;2.50;;
16822;SDS011;8528;49.976;11.858;2023-01-28T06:39:19;3.20;;;2.80;;
16822;SDS011;8528;49.976;11.858;2023-01-28T06:41:49;4.07;;;2.73;;
16822;SDS011;8528;49.976;11.858;2023-01-28T06:44:15;4.60;;;2.67;;
16822;SDS011;8528;49.976;11.858;2023-01-28T06:46:42;3.77;;;2.50;;
16822;SDS011;8528;49.976;11.858;2023-01-28T06:49:09;2.73;;;2.17;;
16822;SDS011;8528;49.976;11.858;2023-01-28T06:51:36;3.40;;;2.53;;
16822;SDS011;8528;49.976;11.858;2023-01-28T06:54:03;3.43;;;2.50;;
16822;SDS011;8528;49.976;11.858;2023-01-28T06:56:29;3.67;;;2.50;;
16822;SDS011;8528;49.976;11.858;2023-01-28T06:58:56;3.00;;;2.70;;
16822;SDS011;8528;49.976;11.858;2023-01-28T07:01:23;3.17;;;2.73;;
16822;SDS011;8528;49.976;11.858;2023-01-28T07:03:50;3.70;;;2.43;;
16822;SDS011;8528;49.976;11.858;2023-01-28T07:06:17;4.73;;;2.93;;
16822;SDS011;8528;49.976;11.858;2023-01-28T07:08:44;3.30;;;2.83;;
16822;SDS011;8528;49.976;11.858;2023-01-28T07:11:10;3.70;;;2.70;;
16822;SDS011;8528;49.976;11.858;2023-01-28T07:13:37;2.77;;;2.53;;
16822;SDS011;8528;49.976;11.858;2023-01-28T07:16:04;3.77;;;2.53;;
16822;SDS011;8528;49.976;11.858;2023-01-28T07:18:31;4.43;;;3.17;;
16822;SDS011;8528;49.976;11.858;2023-01-28T07:20:58;3.50;;;3.00;;
16822;SDS011;8528;49.976;11.858;2023-01-28T07:23:25;4.53;;;3.50;;
16822;SDS011;8528;49.976;11.858;2023-01-28T07:25:54;4.17;;;3.40;;
16822;SDS011;8528;49.976;11.858;2023-01-28T07:28:20;3.30;;;3.00;;
16822;SDS011;8528;49.976;11.858;2023-01-28T07:30:48;3.00;;;2.70;;
16822;SDS011;8528;49.976;11.858;2023-01-28T07:33:18;3.57;;;2.97;;
16822;SDS011;8528;49.976;11.858;2023-01-28T07:35:46;4.60;;;2.73;;
16822;SDS011;8528;49.976;11.858;2023-01-28T07:38:13;4.20;;;2.80;;
16822;SDS011;8528;49.976;11.858;2023-01-28T07:40:40;6.20;;;2.93;;
16822;SDS011;8528;49.976;11.858;2023-01-28T07:43:13;3.33;;;3.00;;
16822;SDS011;8528;49.976;11.858;2023-01-28T07:45:40;3.30;;;3.00;;
16822;SDS011;8528;49.976;11.858;2023-01-28T07:48:08;4.43;;;3.10;;
16822;SDS011;8528;49.976;11.858;2023-01-28T07:50:37;4.20;;;3.00;;
16822;SDS011;8528;49.976;11.858;2023-01-28T07:53:04;3.40;;;3.07;;
16822;SDS011;8528;49.976;11.858;2023-01-28T07:55:33;4.30;;;3.23;;
16822;SDS011;8528;49.976;11.858;2023-01-28T07:58:01;3.57;;;3.13;;
16822;SDS011;8528;49.976;11.858;2023-01-28T08:00:32;3.53;;;3.10;;
16822;SDS011;8528;49.976;11.858;2023-01-28T08:03:02;3.57;;;3.27;;
16822;SDS011;8528;49.976;11.858;2023-01-28T08:05:38;3.30;;;2.80;;
16822;SDS011;8528;49.976;11.858;2023-01-28T08:08:09;3.00;;;2.63;;
16822;SDS011;8528;49.976;11.858;2023-01-28T08:10:36;3.07;;;2.27;;
16822;SDS011;8528;49.976;11.858;2023-01-28T08:13:04;3.23;;;2.33;;
16822;SDS011;8528;49.976;11.858;2023-01-28T08:15:31;2.57;;;2.33;;
16822;SDS011;8528;49.976;11.858;2023-01-28T08:18:01;3.63;;;2.37;;
16822;SDS011;8528;49.976;11.858;2023-01-28T08:20:28;3.23;;;2.20;;
16822;SDS011;8528;49.976;11.858;2023-01-28T08:25:37;3.20;;;2.70;;
16822;SDS011;8528;49.976;11.858;2023-01-28T08:28:07;2.53;;;2.33;;
16822;SDS011;8528;49.976;11.858;2023-01-28T08:30:35;3.10;;;2.47;;
16822;SDS011;8528;49.976;11.858;2023-01-28T08:33:04;4.27;;;2.77;;
16822;SDS011;8528;49.976;11.858;2023-01-28T08:35:32;2.60;;;2.40;;
16822;SDS011;8528;49.976;11.858;2023-01-28T08:38:00;2.87;;;2.50;;
16822;SDS011;8528;49.976;11.858;2023-01-28T08:40:29;3.67;;;2.27;;
16822;SDS011;8528;49.976;11.858;2023-01-28T08:42:56;3.50;;;2.57;;
16822;SDS011;8528;49.976;11.858;2023-01-28T08:45:23;3.37;;;2.53;;
16822;SDS011;8528;49.976;11.858;2023-01-28T08:48:03;3.83;;;2.57;;
16822;SDS011;8528;49.976;11.858;2023-01-28T08:50:33;2.93;;;2.50;;
16822;SDS011;8528;49.976;11.858;2023-01-28T08:53:05;3.00;;;2.70;;
16822;SDS011;8528;49.976;11.858;2023-01-28T08:55:35;2.67;;;2.43;;
16822;SDS011;8528;49.976;11.858;2023-01-28T08:58:02;3.00;;;2.60;;
16822;SDS011;8528;49.976;11.858;2023-01-28T09:00:30;3.97;;;2.83;;
16822;SDS011;8528;49.976;11.858;2023-01-28T09:02:58;5.63;;;2.97;;
16822;SDS011;8528;49.976;11.858;2023-01-28T09:05:25;3.40;;;3.00;;
16822;SDS011;8528;49.976;11.858;2023-01-28T09:07:52;3.13;;;2.73;;
16822;SDS011;8528;49.976;11.858;2023-01-28T09:10:18;3.30;;;2.67;;
16822;SDS011;8528;49.976;11.858;2023-01-28T09:12:45;3.90;;;2.60;;
16822;SDS011;8528;49.976;11.858;2023-01-28T09:15:12;3.10;;;2.80;;
16822;SDS011;8528;49.976;11.858;2023-01-28T09:17:39;3.40;;;3.10;;
16822;SDS011;8528;49.976;11.858;2023-01-28T09:23:11;3.67;;;2.40;;
16822;SDS011;8528;49.976;11.858;2023-01-28T09:25:38;3.53;;;2.87;;
16822;SDS011;8528;49.976;11.858;2023-01-28T09:28:05;3.60;;;2.90;;
16822;SDS011;8528;49.976;11.858;2023-01-28T09:30:32;2.90;;;2.50;;
16822;SDS011;8528;49.976;11.858;2023-01-28T09:33:02;3.33;;;2.73;;
16822;SDS011;8528;49.976;11.858;2023-01-28T09:35:29;3.53;;;2.83;;
16822;SDS011;8528;49.976;11.858;2023-01-28T09:37:56;3.40;;;2.83;;
16822;SDS011;8528;49.976;11.858;2023-01-28T09:40:28;5.20;;;2.70;;
16822;SDS011;8528;49.976;11.858;2023-01-28T09:43:32;2.73;;;2.53;;
16822;SDS011;8528;49.976;11.858;2023-01-28T09:46:07;3.63;;;3.07;;
16822;SDS011;8528;49.976;11.858;2023-01-28T09:48:39;3.37;;;2.87;;
16822;SDS011;8528;49.976;11.858;2023-01-28T09:51:10;2.90;;;2.60;;
16822;SDS011;8528;49.976;11.858;2023-01-28T09:54:04;3.93;;;2.53;;
16822;SDS011;8528;49.976;11.858;2023-01-28T09:56:46;2.57;;;2.37;;
16822;SDS011;8528;49.976;11.858;2023-01-28T09:59:18;3.03;;;2.73;;
16822;SDS011;8528;49.976;11.858;2023-01-28T10:04:45;2.63;;;2.43;;
16822;SDS011;8528;49.976;11.858;2023-01-28T10:13:13;2.80;;;2.50;;
16822;SDS011;8528;49.976;11.858;2023-01-28T10:19:30;3.03;;;2.67;;
16822;SDS011;8528;49.976;11.858;2023-01-28T10:22:04;4.33;;;2.70;;
16822;SDS011;8528;49.976;11.858;2023-01-28T10:24:39;2.97;;;2.73;;
16822;SDS011;8528;49.976;11.858;2023-01-28T10:27:14;3.17;;;2.80;;
16822;SDS011;8528;49.976;11.858;2023-01-28T10:29:44;3.77;;;2.77;;
16822;SDS011;8528;49.976;11.858;2023-01-28T10:32:16;3.40;;;3.10;;
16822;SDS011;8528;49.976;11.858;2023-01-28T10:34:57;3.97;;;3.00;;
16822;SDS011;8528;49.976;11.858;2023-01-28T10:37:28;3.23;;;2.90;;
16822;SDS011;8528;49.976;11.858;2023-01-28T10:39:59;3.43;;;2.97;;
16822;SDS011;8528;49.976;11.858;2023-01-28T10:44:58;3.40;;;2.70;;
16822;SDS011;8528;49.976;11.858;2023-01-28T10:47:30;3.57;;;2.90;;
16822;SDS011;8528;49.976;11.858;2023-01-28T10:50:03;2.33;;;2.13;;
16822;SDS011;8528;49.976;11.858;2023-01-28T10:52:31;2.57;;;2.30;;
16822;SDS011;8528;49.976;11.858;2023-01-28T10:55:02;3.97;;;2.50;;
16822;SDS011;8528;49.976;11.858;2023-01-28T10:57:33;2.77;;;2.47;;
16822;SDS011;8528;49.976;11.858;2023-01-28T11:02:46;2.20;;;2.00;;
16822;SDS011;8528;49.976;11.858;2023-01-28T11:05:25;2.40;;;2.20;;
16822;SDS011;8528;49.976;11.858;2023-01-28T11:08:12;3.23;;;2.50;;
16822;SDS011;8528;49.976;11.858;2023-01-28T11:10:41;2.73;;;2.00;;
16822;SDS011;8528;49.976;11.858;2023-01-28T11:13:14;2.57;;;2.37;;
16822;SDS011;8528;49.976;11.858;2023-01-28T11:15:45;2.10;;;1.90;;
16822;SDS011;8528;49.976;11.858;2023-01-28T11:18:15;2.67;;;2.27;;
16822;SDS011;8528;49.976;11.858;2023-01-28T11:20:48;2.33;;;2.13;;
16822;SDS011;8528;49.976;11.858;2023-01-28T11:23:27;2.33;;;2.10;;
16822;SDS011;8528;49.976;11.858;2023-01-28T11:25:59;2.20;;;2.00;;
16822;SDS011;8528;49.976;11.858;2023-01-28T11:28:31;1.90;;;1.80;;
16822;SDS011;8528;49.976;11.858;2023-01-28T11:31:00;2.30;;;2.10;;
16822;SDS011;8528;49.976;11.858;2023-01-28T11:36:48;4.17;;;1.97;;
16822;SDS011;8528;49.976;11.858;2023-01-28T11:39:02;2.53;;;2.10;;
16822;SDS011;8528;49.976;11.858;2023-01-28T11:41:47;2.37;;;2.17;;
16822;SDS011;8528;49.976;11.858;2023-01-28T11:44:15;3.13;;;2.10;;
16822;SDS011;8528;49.976;11.858;2023-01-28T11:52:22;3.40;;;2.53;;
16822;SDS011;8528;49.976;11.858;2023-01-28T11:58:18;2.97;;;2.67;;
16822;SDS011;8528;49.976;11.858;2023-01-28T12:04:07;2.40;;;2.20;;
16822;SDS011;8528;49.976;11.858;2023-01-28T12:09:32;3.73;;;2.53;;
16822;SDS011;8528;49.976;11.858;2023-01-28T12:17:46;4.13;;;2.33;;
16822;SDS011;8528;49.976;11.858;2023-01-28T12:28:51;3.27;;;2.70;;
16822;SDS011;8528;49.976;11.858;2023-01-28T12:34:25;3.57;;;2.70;;
16822;SDS011;8528;49.976;11.858;2023-01-28T12:37:26;3.40;;;2.73;;
16822;SDS011;8528;49.976;11.858;2023-01-28T12:42:52;3.00;;;2.40;;
16822;SDS011;8528;49.976;11.858;2023-01-28T12:45:44;3.13;;;2.67;;
16822;SDS011;8528;49.976;11.858;2023-01-28T12:48:50;2.83;;;2.50;;
16822;SDS011;8528;49.976;11.858;2023-01-28T12:51:14;39.90;;;20.00;;
16822;SDS011;8528;49.976;11.858;2023-01-28T12:56:26;3.60;;;2.53;;
16822;SDS011;8528;49.976;11.858;2023-01-28T12:59:03;2.70;;;2.50;;
16822;SDS011;8528;49.976;11.858;2023-01-28T13:04:26;3.70;;;2.60;;
16822;SDS011;8528;49.976;11.858;2023-01-28T13:07:17;2.67;;;2.47;;
16822;SDS011;8528;49.976;11.858;2023-01-28T13:09:53;3.00;;;2.63;;
16822;SDS011;8528;49.976;11.858;2023-01-28T13:12:30;2.70;;;2.50;;
16822;SDS011;8528;49.976;11.858;2023-01-28T13:14:58;3.93;;;2.50;;
16822;SDS011;8528;49.976;11.858;2023-01-28T13:17:27;2.93;;;2.60;;
16822;SDS011;8528;49.976;11.858;2023-01-28T13:19:56;2.80;;;2.20;;
16822;SDS011;8528;49.976;11.858;2023-01-28T13:22:26;3.47;;;2.60;;
16822;SDS011;8528;49.976;11.858;2023-01-28T13:25:11;4.00;;;2.80;;
16822;SDS011;8528;49.976;11.858;2023-01-28T13:27:59;4.57;;;3.07;;
16822;SDS011;8528;49.976;11.858;2023-01-28T13:30:29;2.33;;;2.13;;
16822;SDS011;8528;49.976;11.858;2023-01-28T13:33:01;3.73;;;2.90;;
16822;SDS011;8528;49.976;11.858;2023-01-28T13:38:16;3.23;;;2.93;;
16822;SDS011;8528;49.976;11.858;2023-01-28T13:40:55;3.17;;;2.87;;
16822;SDS011;8528;49.976;11.858;2023-01-28T13:43:36;4.30;;;3.30;;
16822;SDS011;8528;49.976;11.858;2023-01-28T13:46:06;3.00;;;2.80;;
16822;SDS011;8528;49.976;11.858;2023-01-28T13:48:48;3.50;;;3.20;;
16822;SDS011;8528;49.976;11.858;2023-01-28T13:51:22;3.40;;;3.10;;
16822;SDS011;8528;49.976;11.858;2023-01-28T13:54:05;3.97;;;2.63;;
16822;SDS011;8528;49.976;11.858;2023-01-28T13:56:40;3.80;;;3.00;;
16822;SDS011;8528;49.976;11.858;2023-01-28T14:07:51;4.07;;;3.40;;
16822;SDS011;8528;49.976;11.858;2023-01-28T14:16:31;3.80;;;3.50;;
16822;SDS011;8528;49.976;11.858;2023-01-28T14:19:38;5.47;;;3.80;;
16822;SDS011;8528;49.976;11.858;2023-01-28T14:22:06;4.83;;;4.30;;
16822;SDS011;8528;49.976;11.858;2023-01-28T14:24:35;5.80;;;4.07;;
16822;SDS011;8528;49.976;11.858;2023-01-28T14:32:17;5.27;;;3.37;;
16822;SDS011;8528;49.976;11.858;2023-01-28T14:34:47;4.90;;;4.30;;
16822;SDS011;8528;49.976;11.858;2023-01-28T14:37:15;3.97;;;3.40;;
16822;SDS011;8528;49.976;11.858;2023-01-28T14:39:45;4.03;;;3.67;;
16822;SDS011;8528;49.976;11.858;2023-01-28T14:42:21;5.73;;;3.63;;
16822;SDS011;8528;49.976;11.858;2023-01-28T14:44:58;4.40;;;3.50;;
16822;SDS011;8528;49.976;11.858;2023-01-28T14:53:38;4.07;;;3.47;;
16822;SDS011;8528;49.976;11.858;2023-01-28T14:56:25;4.87;;;3.40;;
16822;SDS011;8528;49.976;11.858;2023-01-28T14:59:19;3.97;;;3.57;;
16822;SDS011;8528;49.976;11.858;2023-01-28T15:01:53;5.63;;;3.50;;
16822;SDS011;8528;49.976;11.858;2023-01-28T15:06:53;4.13;;;3.70;;
16822;SDS011;8528;49.976;11.858;2023-01-28T15:09:21;4.50;;;3.43;;
16822;SDS011;8528;49.976;11.858;2023-01-28T15:11:50;3.83;;;3.43;;
16822;SDS011;8528;49.976;11.858;2023-01-28T15:14:29;4.07;;;3.67;;
16822;SDS011;8528;49.976;11.858;2023-01-28T15:16:57;4.10;;;3.23;;
16822;SDS011;8528;49.976;11.858;2023-01-28T15:19:32;4.83;;;3.57;;
16822;SDS011;8528;49.976;11.858;2023-01-28T15:22:03;4.67;;;3.43;;
16822;SDS011;8528;49.976;11.858;2023-01-28T15:24:33;5.50;;;3.80;;
16822;SDS011;8528;49.976;11.858;2023-01-28T15:27:00;5.40;;;3.70;;
16822;SDS011;8528;49.976;11.858;2023-01-28T15:29:32;4.60;;;3.07;;
16822;SDS011;8528;49.976;11.858;2023-01-28T15:32:02;5.10;;;3.23;;
16822;SDS011;8528;49.976;11.858;2023-01-28T15:34:30;4.17;;;3.77;;
16822;SDS011;8528;49.976;11.858;2023-01-28T15:36:58;6.10;;;5.07;;
16822;SDS011;8528;49.976;11.858;2023-01-28T15:42:25;6.50;;;3.73;;
16822;SDS011;8528;49.976;11.858;2023-01-28T15:44:54;3.17;;;2.87;;
16822;SDS011;8528;49.976;11.858;2023-01-28T15:47:26;3.67;;;3.07;;
16822;SDS011;8528;49.976;11.858;2023-01-28T15:50:04;9.20;;;5.83;;
16822;SDS011;8528;49.976;11.858;2023-01-28T15:52:37;5.47;;;3.20;;
16822;SDS011;8528;49.976;11.858;2023-01-28T15:55:07;3.97;;;3.57;;
16822;SDS011;8528;49.976;11.858;2023-01-28T15:57:56;5.57;;;3.47;;
16822;SDS011;8528;49.976;11.858;2023-01-28T16:00:24;5.17;;;4.20;;
16822;SDS011;8528;49.976;11.858;2023-01-28T16:02:52;5.03;;;3.67;;
16822;SDS011;8528;49.976;11.858;2023-01-28T16:05:30;8.63;;;6.40;;
16822;SDS011;8528;49.976;11.858;2023-01-28T16:08:07;30.03;;;18.67;;
16822;SDS011;8528;49.976;11.858;2023-01-28T16:10:36;4.77;;;4.00;;
16822;SDS011;8528;49.976;11.858;2023-01-28T16:13:04;5.70;;;3.83;;
16822;SDS011;8528;49.976;11.858;2023-01-28T16:15:43;5.97;;;4.27;;
16822;SDS011;8528;49.976;11.858;2023-01-28T16:18:55;18.13;;;8.47;;
16822;SDS011;8528;49.976;11.858;2023-01-28T16:21:04;37.33;;;17.77;;
16822;SDS011;8528;49.976;11.858;2023-01-28T16:23:35;21.70;;;11.60;;
16822;SDS011;8528;49.976;11.858;2023-01-28T16:26:26;5.07;;;4.57;;
16822;SDS011;8528;49.976;11.858;2023-01-28T16:28:53;6.43;;;4.37;;
16822;SDS011;8528;49.976;11.858;2023-01-28T16:31:19;5.30;;;3.83;;
16822;SDS011;8528;49.976;11.858;2023-01-28T16:33:46;6.73;;;3.83;;
16822;SDS011;8528;49.976;11.858;2023-01-28T16:36:14;4.80;;;4.30;;
16822;SDS011;8528;49.976;11.858;2023-01-28T16:38:44;6.13;;;4.40;;
16822;SDS011;8528;49.976;11.858;2023-01-28T16:41:12;7.57;;;5.30;;
16822;SDS011;8528;49.976;11.858;2023-01-28T16:43:45;9.20;;;5.70;;
16822;SDS011;8528;49.976;11.858;2023-01-28T16:46:11;5.60;;;4.33;;
16822;SDS011;8528;49.976;11.858;2023-01-28T16:48:38;5.77;;;4.20;;
16822;SDS011;8528;49.976;11.858;2023-01-28T16:51:05;5.43;;;4.27;;
16822;SDS011;8528;49.976;11.858;2023-01-28T16:53:35;5.40;;;3.50;;
16822;SDS011;8528;49.976;11.858;2023-01-28T16:56:03;6.07;;;3.77;;
16822;SDS011;8528;49.976;11.858;2023-01-28T16:58:30;5.10;;;4.30;;
16822;SDS011;8528;49.976;11.858;2023-01-28T17:00:56;5.03;;;3.57;;
16822;SDS011;8528;49.976;11.858;2023-01-28T17:03:23;4.03;;;3.63;;
16822;SDS011;8528;49.976;11.858;2023-01-28T17:05:50;3.63;;;3.33;;